createdAt,value
2022-09-07T00:00:27.891Z,97203.25
2022-09-07T00:01:29.514Z,97201.44
2022-09-07T00:02:31.175Z,97204.25
2022-09-07T00:03:33.191Z,97199.63
2022-09-07T00:04:35.042Z,97195.41
2022-09-07T00:05:44.019Z,97193.06
2022-09-07T00:06:45.629Z,97204.38
2022-09-07T00:07:47.370Z,97205.81
2022-09-07T00:08:49.126Z,97200.91
2022-09-07T00:09:51.545Z,97196.00
2022-09-07T00:11:02.139Z,97199.00
2022-09-07T00:12:04.068Z,97195.84
2022-09-07T00:13:07.100Z,97202.47
2022-09-07T00:14:08.737Z,97200.31
2022-09-07T00:15:12.771Z,97200.44
2022-09-07T00:16:17.784Z,97201.22
2022-09-07T00:17:19.550Z,97206.28
2022-09-07T00:18:21.464Z,97205.19
2022-09-07T00:20:42.156Z,97207.97
2022-09-07T00:21:43.886Z,97212.66
2022-09-07T00:22:46.270Z,97204.97
2022-09-07T00:23:49.086Z,97203.47
2022-09-07T00:24:50.900Z,97212.06
2022-09-07T00:25:54.240Z,97207.44
2022-09-07T00:26:56.680Z,97212.13
2022-09-07T00:27:58.959Z,97207.50
2022-09-07T00:29:02.719Z,97215.31
2022-09-07T00:30:05.715Z,97211.44
2022-09-07T00:31:21.984Z,97211.88
2022-09-07T00:32:23.751Z,97209.94
2022-09-07T00:33:26.316Z,97214.59
2022-09-07T00:34:27.894Z,97212.25
2022-09-07T00:35:29.496Z,97219.69
2022-09-07T00:36:31.379Z,97220.06
2022-09-07T00:37:33.064Z,97212.31
2022-09-07T00:38:35.302Z,97219.69
2022-09-07T00:39:37.617Z,97216.25
2022-09-07T00:40:39.467Z,97217.00
2022-09-07T00:41:41.046Z,97212.31
2022-09-07T00:42:42.718Z,97212.63
2022-09-07T00:43:47.230Z,97215.22
2022-09-07T00:45:00.705Z,97215.94
2022-09-07T00:46:05.451Z,97208.53
2022-09-07T00:47:13.988Z,97213.97
2022-09-07T00:48:19.364Z,97204.72
2022-09-07T00:49:22.782Z,97205.94
2022-09-07T00:50:27.043Z,97209.44
2022-09-07T00:51:47.854Z,97206.78
2022-09-07T00:53:02.598Z,97204.88
2022-09-07T00:54:08.755Z,97205.66
2022-09-07T00:55:14.447Z,97202.41
2022-09-07T00:56:16.075Z,97204.94
2022-09-07T00:57:17.893Z,97203.22
2022-09-07T00:58:22.072Z,97202.34
2022-09-07T00:59:29.363Z,97198.72
2022-09-07T01:00:31.645Z,97198.34
2022-09-07T01:01:34.290Z,97198.69
2022-09-07T01:02:36.140Z,97203.56
2022-09-07T01:03:44.765Z,97196.28
2022-09-07T01:04:50.395Z,97198.88
2022-09-07T01:06:05.786Z,97199.50
2022-09-07T01:07:08.820Z,97196.00
2022-09-07T01:08:13.210Z,97202.63
2022-09-07T01:09:18.400Z,97195.19
2022-09-07T01:10:20.777Z,97195.78
2022-09-07T01:11:23.380Z,97194.06
2022-09-07T01:12:25.012Z,97197.59
2022-09-07T01:13:27.372Z,97199.50
2022-09-07T01:14:34.731Z,97196.66
2022-09-07T01:16:08.741Z,97190.06
2022-09-07T01:17:49.909Z,97196.97
2022-09-07T01:19:14.493Z,97199.44
2022-09-07T01:20:33.232Z,97198.81
2022-09-07T01:21:34.815Z,97196.25
2022-09-07T01:22:58.019Z,97191.31
2022-09-07T01:24:14.725Z,97192.25
2022-09-07T01:25:32.413Z,97191.94
2022-09-07T01:26:55.668Z,97197.06
2022-09-07T01:28:23.360Z,97190.88
2022-09-07T01:29:58.877Z,97187.47
2022-09-07T01:31:35.108Z,97188.97
2022-09-07T01:32:42.737Z,97196.41
2022-09-07T01:34:02.871Z,97201.06
2022-09-07T01:35:10.243Z,97197.63
2022-09-07T01:36:20.410Z,97201.81
2022-09-07T01:37:42.941Z,97197.91
2022-09-07T01:38:53.163Z,97198.25
2022-09-07T01:40:08.061Z,97193.56
2022-09-07T01:41:17.786Z,97202.38
2022-09-07T01:42:23.748Z,97196.16
2022-09-07T01:43:46.056Z,97203.03
2022-09-07T01:44:52.715Z,97196.00
2022-09-07T01:45:56.773Z,97204.38
2022-09-07T01:47:25.777Z,97201.56
2022-09-07T01:48:27.565Z,97201.94
2022-09-07T01:49:48.333Z,97206.56
2022-09-07T01:50:56.879Z,97199.69
2022-09-07T01:52:15.180Z,97207.41
2022-09-07T01:53:35.493Z,97200.31
2022-09-07T01:54:49.382Z,97202.72
2022-09-07T01:56:06.509Z,97201.22
2022-09-07T01:57:14.732Z,97203.53
2022-09-07T01:58:25.093Z,97198.03
2022-09-07T01:59:29.726Z,97201.13
2022-09-07T02:00:34.586Z,97202.72
2022-09-07T02:01:46.848Z,97203.53
2022-09-07T02:03:04.813Z,97204.69
2022-09-07T02:04:21.553Z,97199.69
2022-09-07T02:05:36.616Z,97194.72
2022-09-07T02:06:49.780Z,97199.03
2022-09-07T02:08:03.159Z,97199.03
2022-09-07T02:09:11.241Z,97201.75
2022-09-07T02:10:19.223Z,97199.03
2022-09-07T02:11:27.225Z,97204.38
2022-09-07T02:12:38.753Z,97204.28
2022-09-07T02:13:54.348Z,97208.75
2022-09-07T02:15:02.862Z,97206.28
2022-09-07T02:16:29.770Z,97204.72
2022-09-07T02:17:34.214Z,97207.66
2022-09-07T02:18:46.710Z,97201.22
2022-09-07T02:19:55.815Z,97208.19
2022-09-07T02:20:59.876Z,97210.19
2022-09-07T02:22:06.950Z,97210.38
2022-09-07T02:23:19.391Z,97200.91
2022-09-07T02:24:32.711Z,97213.00
2022-09-07T02:25:40.643Z,97206.03
2022-09-07T02:26:48.137Z,97206.16
2022-09-07T02:28:15.427Z,97218.63
2022-09-07T02:29:17.014Z,97215.44
2022-09-07T02:30:19.393Z,97208.41
2022-09-07T02:31:21.380Z,97208.75
2022-09-07T02:32:23.106Z,97202.16
2022-09-07T02:33:24.888Z,97202.94
2022-09-07T02:34:26.739Z,97205.22
2022-09-07T02:35:28.540Z,97209.97
2022-09-07T02:36:36.619Z,97202.00
2022-09-07T02:37:39.523Z,97208.69
2022-09-07T02:38:41.393Z,97207.03
2022-09-07T02:39:43.035Z,97209.50
2022-09-07T02:40:50.706Z,97207.31
2022-09-07T02:41:52.439Z,97216.69
2022-09-07T02:42:54.427Z,97211.34
2022-09-07T02:43:56.978Z,97203.66
2022-09-07T02:44:59.047Z,97209.56
2022-09-07T02:46:19.186Z,97210.81
2022-09-07T02:47:32.134Z,97214.38
2022-09-07T02:48:58.156Z,97222.97
2022-09-07T02:49:59.711Z,97218.00
2022-09-07T02:51:10.127Z,97216.09
2022-09-07T02:52:36.360Z,97221.19
2022-09-07T02:54:02.744Z,97216.63
2022-09-07T02:55:19.274Z,97221.25
2022-09-07T02:56:41.012Z,97222.06
2022-09-07T02:58:08.400Z,97212.56
2022-09-07T02:59:28.688Z,97221.34
2022-09-07T03:00:37.909Z,97225.22
2022-09-07T03:01:57.596Z,97224.69
2022-09-07T03:03:17.181Z,97229.75
2022-09-07T03:04:43.740Z,97228.59
2022-09-07T03:05:52.381Z,97221.66
2022-09-07T03:07:16.292Z,97231.69
2022-09-07T03:08:17.823Z,97222.00
2022-09-07T03:09:23.692Z,97219.38
2022-09-07T03:10:26.784Z,97222.50
2022-09-07T03:11:29.600Z,97211.72
2022-09-07T03:12:44.816Z,97222.59
2022-09-07T03:13:46.463Z,97213.69
2022-09-07T03:14:48.136Z,97217.91
2022-09-07T03:15:55.018Z,97222.50
2022-09-07T03:16:57.532Z,97222.50
2022-09-07T03:17:59.152Z,97225.50
2022-09-07T03:19:00.736Z,97221.22
2022-09-07T03:20:02.507Z,97225.59
2022-09-07T03:21:04.224Z,97222.50
2022-09-07T03:22:06.312Z,97224.88
2022-09-07T03:23:07.918Z,97225.72
2022-09-07T03:24:09.799Z,97220.75
2022-09-07T03:25:11.837Z,97221.19
2022-09-07T03:26:24.965Z,97219.72
2022-09-07T03:27:26.611Z,97221.72
2022-09-07T03:28:28.315Z,97225.97
2022-09-07T03:29:29.993Z,97223.69
2022-09-07T03:30:31.836Z,97223.69
2022-09-07T03:31:34.284Z,97233.38
2022-09-07T03:32:37.444Z,97222.16
2022-09-07T03:33:39.237Z,97228.34
2022-09-07T03:34:40.875Z,97228.34
2022-09-07T03:35:49.698Z,97226.41
2022-09-07T03:36:51.347Z,97224.38
2022-09-07T03:37:53.006Z,97224.34
2022-09-07T03:38:55.335Z,97223.53
2022-09-07T03:39:57.252Z,97229.28
2022-09-07T03:41:00.497Z,97236.56
2022-09-07T03:42:02.252Z,97237.31
2022-09-07T03:43:04.106Z,97231.06
2022-09-07T03:44:07.645Z,97239.19
2022-09-07T03:45:10.567Z,97241.69
2022-09-07T03:46:12.343Z,97237.81
2022-09-07T03:47:14.036Z,97239.16
2022-09-07T03:48:15.771Z,97233.78
2022-09-07T03:49:17.475Z,97239.22
2022-09-07T03:50:19.103Z,97240.03
2022-09-07T03:51:20.708Z,97247.31
2022-09-07T03:52:22.420Z,97253.34
2022-09-07T03:53:24.081Z,97243.09
2022-09-07T03:54:25.835Z,97253.03
2022-09-07T03:55:27.441Z,97247.38
2022-09-07T03:56:29.071Z,97246.34
2022-09-07T03:57:31.032Z,97249.00
2022-09-07T03:58:34.184Z,97247.94
2022-09-07T03:59:35.826Z,97251.50
2022-09-07T04:00:41.043Z,97248.13
2022-09-07T04:01:42.882Z,97254.44
2022-09-07T04:02:44.660Z,97251.03
2022-09-07T04:03:48.085Z,97256.91
2022-09-07T04:04:49.822Z,97251.94
2022-09-07T04:05:51.464Z,97250.78
2022-09-07T04:06:53.380Z,97254.56
2022-09-07T04:07:55.022Z,97248.38
2022-09-07T04:08:56.690Z,97251.47
2022-09-07T04:09:58.275Z,97252.25
2022-09-07T04:11:01.677Z,97254.44
2022-09-07T04:12:03.815Z,97253.69
2022-09-07T04:13:06.148Z,97262.25
2022-09-07T04:14:09.095Z,97258.81
2022-09-07T04:15:11.041Z,97263.91
2022-09-07T04:16:14.383Z,97263.94
2022-09-07T04:17:16.061Z,97264.84
2022-09-07T04:18:17.953Z,97263.41
2022-09-07T04:19:19.583Z,97259.94
2022-09-07T04:20:21.205Z,97258.78
2022-09-07T04:21:23.909Z,97260.72
2022-09-07T04:22:25.543Z,97261.81
2022-09-07T04:23:27.261Z,97261.00
2022-09-07T04:24:28.861Z,97262.47
2022-09-07T04:25:30.490Z,97259.31
2022-09-07T04:26:34.220Z,97253.84
2022-09-07T04:27:35.813Z,97259.28
2022-09-07T04:28:37.430Z,97256.13
2022-09-07T04:29:39.035Z,97259.94
2022-09-07T04:30:40.664Z,97258.50
2022-09-07T04:31:42.268Z,97262.84
2022-09-07T04:32:46.459Z,97258.31
2022-09-07T04:33:49.792Z,97261.53
2022-09-07T04:34:53.918Z,97258.19
2022-09-07T04:35:55.637Z,97259.75
2022-09-07T04:36:57.276Z,97255.97
2022-09-07T04:37:58.925Z,97260.34
2022-09-07T04:39:03.237Z,97260.78
2022-09-07T04:40:05.583Z,97264.81
2022-09-07T04:41:15.502Z,97259.47
2022-09-07T04:42:17.286Z,97265.78
2022-09-07T04:43:19.433Z,97263.56
2022-09-07T04:44:21.079Z,97260.59
2022-09-07T04:45:22.938Z,97261.41
2022-09-07T04:46:26.687Z,97264.59
2022-09-07T04:47:30.888Z,97262.41
2022-09-07T04:48:32.790Z,97268.25
2022-09-07T04:49:35.117Z,97258.59
2022-09-07T04:50:36.733Z,97265.63
2022-09-07T04:51:39.524Z,97267.91
2022-09-07T04:52:41.131Z,97268.66
2022-09-07T04:53:42.814Z,97261.63
2022-09-07T04:54:44.907Z,97270.91
2022-09-07T04:55:46.610Z,97270.13
2022-09-07T04:56:48.199Z,97267.84
2022-09-07T04:57:50.446Z,97271.72
2022-09-07T04:58:53.012Z,97262.44
2022-09-07T04:59:55.141Z,97268.31
2022-09-07T05:01:01.987Z,97269.03
2022-09-07T05:02:03.987Z,97270.94
2022-09-07T05:03:06.369Z,97260.84
2022-09-07T05:04:08.022Z,97269.78
2022-09-07T05:05:09.797Z,97275.56
2022-09-07T05:06:12.203Z,97267.84
2022-09-07T05:07:13.792Z,97264.59
2022-09-07T05:08:15.369Z,97266.41
2022-09-07T05:09:16.969Z,97262.16
2022-09-07T05:10:18.635Z,97261.81
2022-09-07T05:11:27.722Z,97268.88
2022-09-07T05:12:30.808Z,97270.13
2022-09-07T05:13:32.875Z,97276.38
2022-09-07T05:14:34.982Z,97272.50
2022-09-07T05:15:36.600Z,97280.31
2022-09-07T05:16:38.286Z,97271.47
2022-09-07T05:17:39.908Z,97275.03
2022-09-07T05:18:41.952Z,97268.16
2022-09-07T05:19:43.542Z,97271.34
2022-09-07T05:20:45.137Z,97273.72
2022-09-07T05:21:46.760Z,97266.78
2022-09-07T05:22:48.542Z,97269.94
2022-09-07T05:23:52.592Z,97266.09
2022-09-07T05:24:54.231Z,97262.28
2022-09-07T05:25:55.829Z,97266.63
2022-09-07T05:26:59.625Z,97271.69
2022-09-07T05:28:01.399Z,97271.78
2022-09-07T05:31:49.053Z,97274.84
2022-09-07T05:32:51.743Z,97272.91
2022-09-07T05:35:17.397Z,97270.63
2022-09-07T05:36:20.624Z,97271.44
2022-09-07T05:37:22.255Z,97268.31
2022-09-07T05:38:25.719Z,97270.63
2022-09-07T05:39:28.240Z,97274.94
2022-09-07T05:40:37.229Z,97278.41
2022-09-07T05:41:41.717Z,97280.38
2022-09-07T05:42:43.909Z,97278.41
2022-09-07T05:45:08.489Z,97268.25
2022-09-07T05:46:11.562Z,97277.19
2022-09-07T05:47:13.701Z,97281.47
2022-09-07T05:48:15.615Z,97283.78
2022-09-07T05:49:17.248Z,97279.06
2022-09-07T05:50:18.876Z,97282.97
2022-09-07T05:51:20.472Z,97280.19
2022-09-07T05:52:22.109Z,97276.72
2022-09-07T05:53:23.784Z,97284.53
2022-09-07T05:54:25.546Z,97289.94
2022-09-07T05:55:30.426Z,97280.16
2022-09-07T05:56:36.407Z,97283.25
2022-09-07T05:57:38.134Z,97282.84
2022-09-07T05:58:40.169Z,97279.34
2022-09-07T05:59:41.794Z,97277.00
2022-09-07T06:00:44.302Z,97274.97
2022-09-07T06:01:45.929Z,97278.81
2022-09-07T06:02:48.867Z,97273.69
2022-09-07T06:03:50.534Z,97275.59
2022-09-07T06:04:52.915Z,97281.50
2022-09-07T06:06:19.243Z,97270.88
2022-09-07T06:07:22.989Z,97270.75
2022-09-07T06:08:25.336Z,97280.06
2022-09-07T06:09:30.320Z,97277.78
2022-09-07T06:10:44.686Z,97289.44
2022-09-07T06:11:46.589Z,97282.72
2022-09-07T06:12:49.293Z,97276.03
2022-09-07T06:13:52.127Z,97272.41
2022-09-07T06:14:53.793Z,97269.63
2022-09-07T06:16:00.363Z,97279.69
2022-09-07T06:17:02.026Z,97276.06
2022-09-07T06:18:03.784Z,97274.00
2022-09-07T06:19:07.255Z,97267.72
2022-09-07T06:20:09.675Z,97269.63
2022-09-07T06:21:13.920Z,97267.41
2022-09-07T06:22:15.542Z,97262.25
2022-09-07T06:23:17.708Z,97266.69
2022-09-07T06:24:19.335Z,97266.22
2022-09-07T06:25:22.989Z,97269.72
2022-09-07T06:26:24.764Z,97272.13
2022-09-07T06:27:26.497Z,97263.31
2022-09-07T06:28:36.032Z,97261.75
2022-09-07T06:29:37.693Z,97260.16
2022-09-07T06:30:39.387Z,97264.81
2022-09-07T06:33:02.576Z,97257.00
2022-09-07T06:34:04.164Z,97269.06
2022-09-07T06:35:05.991Z,97269.47
2022-09-07T06:36:13.898Z,97263.50
2022-09-07T06:37:16.770Z,97267.34
2022-09-07T06:38:18.650Z,97268.91
2022-09-07T06:39:20.270Z,97260.63
2022-09-07T06:40:22.855Z,97251.91
2022-09-07T06:42:50.139Z,97266.38
2022-09-07T06:43:53.586Z,97263.63
2022-09-07T06:44:55.473Z,97264.38
2022-09-07T06:47:20.054Z,97269.78
2022-09-07T06:48:21.751Z,97265.19
2022-09-07T06:49:25.166Z,97270.69
2022-09-07T06:50:27.853Z,97269.59
2022-09-07T06:51:29.737Z,97270.03
2022-09-07T06:55:18.310Z,97274.88
2022-09-07T06:56:20.280Z,97267.00
2022-09-07T06:57:21.881Z,97273.53
2022-09-07T06:58:27.162Z,97279.69
2022-09-07T06:59:28.733Z,97276.66
2022-09-07T07:00:30.427Z,97269.84
2022-09-07T07:01:33.748Z,97270.84
2022-09-07T07:02:35.531Z,97274.19
2022-09-07T07:03:38.091Z,97271.59
2022-09-07T07:04:41.058Z,97269.56
2022-09-07T07:05:50.222Z,97265.47
2022-09-07T07:06:51.972Z,97270.00
2022-09-07T07:07:53.574Z,97269.25
2022-09-07T07:08:55.232Z,97262.22
2022-09-07T07:09:56.871Z,97260.41
2022-09-07T07:11:11.899Z,97266.22
2022-09-07T07:12:13.490Z,97262.03
2022-09-07T07:14:16.942Z,97261.66
2022-09-07T07:15:19.167Z,97266.97
2022-09-07T07:16:20.907Z,97257.94
2022-09-07T07:17:22.624Z,97262.03
2022-09-07T07:18:24.260Z,97259.47
2022-09-07T07:19:25.915Z,97257.94
2022-09-07T07:20:28.266Z,97259.50
2022-09-07T07:21:42.911Z,97260.44
2022-09-07T07:22:52.382Z,97260.97
2022-09-07T07:23:54.305Z,97263.75
2022-09-07T07:24:56.021Z,97258.69
2022-09-07T07:26:27.131Z,97260.09
2022-09-07T07:27:31.500Z,97260.56
2022-09-07T07:29:55.284Z,97264.97
2022-09-07T07:30:58.712Z,97266.16
2022-09-07T07:32:01.141Z,97263.41
2022-09-07T07:33:04.689Z,97270.09
2022-09-07T07:34:06.440Z,97270.94
2022-09-07T07:35:08.863Z,97269.16
2022-09-07T07:36:19.644Z,97274.75
2022-09-07T07:37:27.307Z,97272.44
2022-09-07T07:42:39.854Z,97266.22
2022-09-07T07:43:41.695Z,97278.75
2022-09-07T07:44:43.282Z,97273.75
2022-09-07T07:46:03.960Z,97269.94
2022-09-07T07:47:06.857Z,97275.06
2022-09-07T07:48:12.110Z,97275.63
2022-09-07T07:49:13.719Z,97273.47
2022-09-07T07:50:31.846Z,97268.84
2022-09-07T07:52:49.836Z,97263.41
2022-09-07T07:54:17.536Z,97258.19
2022-09-07T07:56:40.670Z,97261.72
2022-09-07T07:57:42.272Z,97266.53
2022-09-07T07:58:46.702Z,97256.50
2022-09-07T07:59:48.272Z,97262.66
2022-09-07T08:00:57.472Z,97260.31
2022-09-07T08:02:04.612Z,97251.72
2022-09-07T08:03:06.739Z,97258.72
2022-09-07T08:04:08.282Z,97251.50
2022-09-07T08:05:09.872Z,97250.88
2022-09-07T08:06:17.283Z,97252.09
2022-09-07T08:07:19.560Z,97255.72
2022-09-07T08:08:23.053Z,97250.53
2022-09-07T08:09:24.676Z,97252.59
2022-09-07T08:10:28.741Z,97248.47
2022-09-07T08:11:31.216Z,97251.63
2022-09-07T08:12:33.153Z,97249.06
2022-09-07T08:13:40.460Z,97247.16
2022-09-07T08:14:42.466Z,97242.09
2022-09-07T08:15:46.817Z,97240.09
2022-09-07T08:16:48.589Z,97238.06
2022-09-07T08:17:50.332Z,97239.16
2022-09-07T08:18:53.614Z,97243.78
2022-09-07T08:19:55.842Z,97235.81
2022-09-07T08:21:05.109Z,97232.22
2022-09-07T08:22:07.889Z,97225.25
2022-09-07T08:23:09.665Z,97225.84
2022-09-07T08:24:11.873Z,97226.50
2022-09-07T08:25:13.531Z,97229.19
2022-09-07T08:26:16.041Z,97234.09
2022-09-07T08:27:20.537Z,97225.22
2022-09-07T08:28:23.637Z,97224.31
2022-09-07T08:29:25.431Z,97225.38
2022-09-07T08:30:27.041Z,97224.78
2022-09-07T08:31:28.673Z,97220.75
2022-09-07T08:32:30.200Z,97219.31
2022-09-07T08:33:31.982Z,97220.88
2022-09-07T08:34:35.628Z,97216.44
2022-09-07T08:35:37.144Z,97215.53
2022-09-07T08:36:38.666Z,97219.16
2022-09-07T08:37:40.194Z,97206.34
2022-09-07T08:38:43.378Z,97211.38
2022-09-07T08:39:45.002Z,97203.41
2022-09-07T08:40:47.017Z,97202.84
2022-09-07T08:42:03.637Z,97205.78
2022-09-07T08:43:40.281Z,97207.97
2022-09-07T08:44:51.042Z,97201.94
2022-09-07T08:45:59.254Z,97201.34
2022-09-07T08:47:28.665Z,97207.56
2022-09-07T08:48:34.382Z,97196.97
2022-09-07T08:49:57.423Z,97209.09
2022-09-07T08:51:19.121Z,97205.00
2022-09-07T08:52:32.848Z,97207.53
2022-09-07T08:53:45.824Z,97196.88
2022-09-07T08:54:59.436Z,97200.50
2022-09-07T08:56:06.432Z,97193.63
2022-09-07T08:57:24.694Z,97198.28
2022-09-07T08:58:48.769Z,97194.59
2022-09-07T09:00:16.974Z,97195.44
2022-09-07T09:01:37.055Z,97195.22
2022-09-07T09:02:44.048Z,97193.31
2022-09-07T09:05:29.266Z,97196.22
2022-09-07T09:06:58.827Z,97187.34
2022-09-07T09:08:29.372Z,97186.41
2022-09-07T09:09:59.132Z,97186.59
2022-09-07T09:11:01.563Z,97189.00
2022-09-07T09:12:03.033Z,97180.94
2022-09-07T09:13:16.982Z,97178.34
2022-09-07T09:14:36.387Z,97170.97
2022-09-07T09:15:52.050Z,97179.09
2022-09-07T09:17:17.925Z,97177.94
2022-09-07T09:18:28.592Z,97176.75
2022-09-07T09:19:45.294Z,97178.00
2022-09-07T09:20:50.691Z,97170.97
2022-09-07T09:22:15.738Z,97177.06
2022-09-07T09:23:19.683Z,97172.41
2022-09-07T09:24:30.767Z,97163.88
2022-09-07T09:25:34.632Z,97168.81
2022-09-07T09:26:36.872Z,97166.19
2022-09-07T09:27:38.433Z,97165.78
2022-09-07T09:28:40.221Z,97161.81
2022-09-07T09:29:42.043Z,97161.66
2022-09-07T09:30:43.601Z,97160.63
2022-09-07T09:31:45.305Z,97154.97
2022-09-07T09:32:49.742Z,97154.09
2022-09-07T09:34:20.377Z,97156.31
2022-09-07T09:35:28.595Z,97164.06
2022-09-07T09:36:34.417Z,97151.69
2022-09-07T09:37:38.024Z,97162.50
2022-09-07T09:38:40.774Z,97148.28
2022-09-07T09:39:44.449Z,97150.22
2022-09-07T09:40:52.981Z,97142.28
2022-09-07T09:41:56.456Z,97152.34
2022-09-07T09:43:19.875Z,97147.97
2022-09-07T09:44:22.875Z,97143.63
2022-09-07T09:45:27.281Z,97143.25
2022-09-07T09:46:37.665Z,97141.38
2022-09-07T09:47:39.604Z,97135.19
2022-09-07T09:48:42.108Z,97146.44
2022-09-07T09:49:45.446Z,97136.91
2022-09-07T09:52:43.368Z,97134.50
2022-09-07T09:53:56.341Z,97137.00
2022-09-07T09:55:17.257Z,97132.41
2022-09-07T09:56:19.732Z,97137.19
2022-09-07T10:04:58.916Z,97122.84
2022-09-07T10:06:04.113Z,97111.97
2022-09-07T10:07:25.870Z,97123.53
2022-09-07T10:08:29.736Z,97114.19
2022-09-07T10:09:38.216Z,97115.03
2022-09-07T10:10:50.330Z,97115.16
2022-09-07T10:12:05.394Z,97109.22
2022-09-07T10:13:32.875Z,97117.41
2022-09-07T10:14:37.176Z,97104.81
2022-09-07T10:15:41.132Z,97111.09
2022-09-07T10:16:44.290Z,97106.06
2022-09-07T10:17:49.815Z,97110.03
2022-09-07T10:18:57.670Z,97104.44
2022-09-07T10:20:02.120Z,97104.81
2022-09-07T10:21:13.987Z,97099.94
2022-09-07T10:22:25.244Z,97102.94
2022-09-07T10:23:27.811Z,97104.16
2022-09-07T10:24:39.473Z,97099.25
2022-09-07T10:25:45.307Z,97096.31
2022-09-07T10:26:48.666Z,97099.53
2022-09-07T10:28:02.364Z,97096.25
2022-09-07T10:29:36.414Z,97086.09
2022-09-07T10:31:08.070Z,97086.69
2022-09-07T10:32:24.931Z,97089.97
2022-09-07T10:35:34.985Z,97083.09
2022-09-07T10:36:39.121Z,97079.50
2022-09-07T10:37:46.717Z,97085.16
2022-09-07T10:39:00.025Z,97078.81
2022-09-07T10:40:21.938Z,97077.78
2022-09-07T10:41:37.186Z,97079.28
2022-09-07T10:44:32.086Z,97074.44
2022-09-07T10:47:46.802Z,97067.56
2022-09-07T10:49:03.028Z,97068.16
2022-09-07T10:50:25.297Z,97058.78
2022-09-07T10:51:35.859Z,97058.72
2022-09-07T10:52:55.829Z,97057.53
2022-09-07T10:54:31.617Z,97055.84
2022-09-07T10:55:37.815Z,97054.72
2022-09-07T10:56:52.533Z,97054.91
2022-09-07T11:00:11.731Z,97051.56
2022-09-07T11:01:32.240Z,97049.47
2022-09-07T11:02:37.165Z,97047.81
2022-09-07T11:04:03.536Z,97039.66
2022-09-07T11:05:17.354Z,97045.38
2022-09-07T11:06:41.458Z,97046.06
2022-09-07T11:08:00.688Z,97041.66
2022-09-07T11:09:19.783Z,97042.97
2022-09-07T11:10:30.579Z,97034.59
2022-09-07T11:12:05.101Z,97034.03
2022-09-07T11:13:12.868Z,97033.03
2022-09-07T11:14:22.093Z,97037.56
2022-09-07T11:15:30.699Z,97030.63
2022-09-07T11:16:55.211Z,97027.88
2022-09-07T11:18:06.050Z,97032.59
2022-09-07T11:20:39.592Z,97030.19
2022-09-07T11:21:59.953Z,97028.41
2022-09-07T11:23:32.167Z,97025.59
2022-09-07T11:24:41.719Z,97026.97
2022-09-07T11:25:54.085Z,97035.69
2022-09-07T11:27:00.791Z,97035.22
2022-09-07T11:28:13.011Z,97023.44
2022-09-07T11:29:38.491Z,97016.31
2022-09-07T11:30:47.994Z,97025.78
2022-09-07T11:31:54.359Z,97016.84
2022-09-07T11:33:04.989Z,97019.69
2022-09-07T11:34:24.105Z,97021.47
2022-09-07T11:35:39.950Z,97012.19
2022-09-07T11:36:51.789Z,97007.69
2022-09-07T11:37:59.581Z,97017.16
2022-09-07T11:39:11.092Z,97010.56
2022-09-07T11:40:33.900Z,97010.88
2022-09-07T11:41:49.169Z,97012.63
2022-09-07T11:43:17.729Z,97011.19
2022-09-07T11:44:29.417Z,97009.44
2022-09-07T11:45:35.325Z,97008.88
2022-09-07T11:46:53.523Z,97007.03
2022-09-07T11:48:05.001Z,97005.56
2022-09-07T11:49:15.120Z,96999.09
2022-09-07T11:50:19.415Z,96992.22
2022-09-07T11:51:39.659Z,97002.03
2022-09-07T11:52:53.579Z,96998.84
2022-09-07T11:54:00.798Z,97003.56
2022-09-07T11:55:08.392Z,96995.44
2022-09-07T11:56:19.799Z,96987.16
2022-09-07T11:57:56.286Z,96986.25
2022-09-07T11:59:15.978Z,96990.25
2022-09-07T12:00:42.198Z,96986.94
2022-09-07T12:02:32.204Z,96983.59
2022-09-07T12:04:00.954Z,96984.41
2022-09-07T12:05:17.881Z,96989.69
2022-09-07T12:06:25.614Z,96981.78
2022-09-07T12:07:45.134Z,96983.41
2022-09-07T12:09:11.957Z,96979.78
2022-09-07T12:10:32.198Z,96979.59
2022-09-07T12:12:02.876Z,96989.34
2022-09-07T12:13:29.142Z,96975.75
2022-09-07T12:14:49.366Z,96978.09
2022-09-07T12:16:28.663Z,96978.72
2022-09-07T12:17:53.500Z,96976.75
2022-09-07T12:19:09.255Z,96975.06
2022-09-07T12:20:15.263Z,96975.13
2022-09-07T12:21:44.910Z,96971.25
2022-09-07T12:23:16.823Z,96972.22
2022-09-07T12:24:44.223Z,96972.47
2022-09-07T12:25:52.877Z,96967.06
2022-09-07T12:26:55.683Z,96971.16
2022-09-07T12:27:58.025Z,96975.13
2022-09-07T12:28:59.549Z,96969.97
2022-09-07T12:30:04.130Z,96972.28
2022-09-07T12:31:10.987Z,96963.72
2022-09-07T12:33:37.819Z,96962.91
2022-09-07T12:34:50.935Z,96963.59
2022-09-07T12:35:54.869Z,96961.94
2022-09-07T12:37:00.438Z,96964.25
2022-09-07T12:38:30.485Z,96956.50
2022-09-07T12:39:33.107Z,96958.34
2022-09-07T12:40:34.687Z,96962.91
2022-09-07T12:42:31.925Z,96963.63
2022-09-07T12:43:14.160Z,96957.78
2022-09-07T12:44:18.679Z,96950.09
2022-09-07T12:45:29.332Z,96952.28
2022-09-07T12:46:34.694Z,96947.41
2022-09-07T12:47:36.907Z,96948.97
2022-09-07T12:49:22.277Z,96949.59
2022-09-07T12:50:39.115Z,96957.38
2022-09-07T12:53:12.835Z,96941.09
2022-09-07T12:54:34.934Z,96945.81
2022-09-07T12:57:34.094Z,96949.94
2022-09-07T12:58:46.278Z,96945.44
2022-09-07T13:00:02.989Z,96946.88
2022-09-07T13:01:07.553Z,96940.59
2022-09-07T13:02:27.342Z,96941.88
2022-09-07T13:03:56.709Z,96940.53
2022-09-07T13:05:13.696Z,96930.94
2022-09-07T13:08:20.887Z,96924.25
2022-09-07T13:09:22.343Z,96924.84
2022-09-07T13:10:26.596Z,96921.63
2022-09-07T13:11:38.135Z,96920.72
2022-09-07T13:13:14.623Z,96916.63
2022-09-07T13:14:16.582Z,96909.31
2022-09-07T13:15:43.357Z,96915.81
2022-09-07T13:18:28.622Z,96911.88
2022-09-07T13:19:52.287Z,96914.19
2022-09-07T13:21:08.757Z,96916.75
2022-09-07T13:22:29.215Z,96912.13
2022-09-07T13:23:31.440Z,96912.03
2022-09-07T13:24:53.075Z,96909.34
2022-09-07T13:25:56.624Z,96907.44
2022-09-07T13:27:24.902Z,96900.31
2022-09-07T13:28:29.526Z,96905.16
2022-09-07T13:29:38.537Z,96906.06
2022-09-07T13:31:04.931Z,96900.56
2022-09-07T13:33:08.051Z,96903.41
2022-09-07T13:33:48.294Z,96899.44
2022-09-07T13:35:02.017Z,96888.78
2022-09-07T13:36:05.394Z,96899.81
2022-09-07T13:37:24.099Z,96889.41
2022-09-07T13:38:26.926Z,96891.28
2022-09-07T13:39:32.470Z,96894.06
2022-09-07T13:40:39.177Z,96886.13
2022-09-07T13:41:51.270Z,96898.91
2022-09-07T13:42:55.292Z,96900.94
2022-09-07T13:44:02.872Z,96888.13
2022-09-07T13:45:07.867Z,96898.00
2022-09-07T13:46:47.631Z,96883.78
2022-09-07T13:48:19.112Z,96894.44
2022-09-07T13:49:56.082Z,96890.81
2022-09-07T13:51:23.436Z,96897.22
2022-09-07T13:52:31.437Z,96899.31
2022-09-07T13:53:38.914Z,96891.34
2022-09-07T13:54:52.367Z,96892.75
2022-09-07T13:56:16.580Z,96891.34
2022-09-07T13:57:26.455Z,96894.44
2022-09-07T13:58:37.769Z,96887.22
2022-09-07T13:59:41.779Z,96886.22
2022-09-07T14:00:54.333Z,96879.81
2022-09-07T14:01:57.132Z,96885.31
2022-09-07T14:03:06.295Z,96892.38
2022-09-07T14:04:22.747Z,96880.69
2022-09-07T14:05:24.456Z,96881.41
2022-09-07T14:06:31.940Z,96883.97
2022-09-07T14:07:33.617Z,96890.06
2022-09-07T14:08:39.658Z,96877.59
2022-09-07T14:09:41.840Z,96884.13
2022-09-07T14:10:48.689Z,96885.00
2022-09-07T14:11:52.794Z,96875.34
2022-09-07T14:13:03.547Z,96883.06
2022-09-07T14:14:09.150Z,96884.56